createdAt,value
2022-11-23T00:00:36.068Z,11.17
2022-11-23T00:03:05.524Z,11.67
2022-11-23T00:05:36.253Z,13.13
2022-11-23T00:08:07.171Z,12.13
2022-11-23T00:10:36.254Z,12.37
2022-11-23T00:13:05.356Z,12.17
2022-11-23T00:15:35.481Z,11.60
2022-11-23T00:18:04.911Z,12.53
2022-11-23T00:20:33.964Z,11.20
2022-11-23T00:23:03.030Z,11.43
2022-11-23T00:25:33.425Z,11.97
2022-11-23T00:28:02.477Z,12.23
2022-11-23T00:30:31.741Z,12.30
2022-11-23T00:33:00.790Z,12.00
2022-11-23T00:35:32.874Z,12.40
2022-11-23T00:38:03.741Z,11.83
2022-11-23T00:40:34.152Z,12.90
2022-11-23T00:43:03.234Z,11.37
2022-11-23T00:45:32.258Z,12.90
2022-11-23T00:48:01.411Z,12.50
2022-11-23T00:50:31.260Z,12.37
2022-11-23T00:53:00.453Z,11.93
2022-11-23T00:55:29.501Z,12.43
2022-11-23T00:58:00.820Z,9.87
2022-11-23T01:00:30.381Z,12.53
2022-11-23T01:02:59.595Z,13.13
2022-11-23T01:05:30.311Z,11.53
2022-11-23T01:08:01.773Z,11.90
2022-11-23T01:10:31.359Z,11.70
2022-11-23T01:13:02.777Z,12.03
2022-11-23T01:15:31.806Z,11.53
2022-11-23T01:18:00.863Z,12.13
2022-11-23T01:20:29.934Z,10.63
2022-11-23T01:22:59.073Z,11.33
2022-11-23T01:25:28.161Z,11.13
2022-11-23T01:28:02.140Z,12.17
2022-11-23T01:30:31.461Z,12.00
2022-11-23T01:33:00.532Z,11.60
2022-11-23T01:35:30.258Z,12.50
2022-11-23T01:38:00.088Z,12.00
2022-11-23T01:40:29.208Z,11.40
2022-11-23T01:43:00.592Z,13.00
2022-11-23T01:45:37.824Z,11.50
2022-11-23T01:48:12.672Z,10.10
2022-11-23T01:50:43.539Z,12.33
2022-11-23T01:53:13.235Z,10.83
2022-11-23T01:55:43.569Z,10.13
2022-11-23T01:58:15.732Z,10.67
2022-11-23T02:00:47.089Z,11.70
2022-11-23T02:03:19.798Z,11.73
2022-11-23T02:05:53.160Z,11.03
2022-11-23T02:08:22.415Z,10.60
2022-11-23T02:10:51.564Z,12.47
2022-11-23T02:13:20.813Z,10.77
2022-11-23T02:15:52.216Z,12.10
2022-11-23T02:18:24.666Z,11.30
2022-11-23T02:20:57.369Z,11.37
2022-11-23T02:23:35.563Z,12.20
2022-11-23T02:26:09.125Z,10.43
2022-11-23T02:28:43.070Z,11.00
2022-11-23T02:31:12.423Z,10.13
2022-11-23T02:33:42.213Z,10.37
2022-11-23T02:36:36.968Z,11.70
2022-11-23T02:39:12.864Z,11.27
2022-11-23T02:41:45.474Z,9.50
2022-11-23T02:44:26.800Z,11.50
2022-11-23T02:46:56.134Z,10.37
2022-11-23T02:49:25.292Z,10.60
2022-11-23T02:51:54.418Z,11.20
2022-11-23T02:54:23.512Z,10.43
2022-11-23T02:56:55.019Z,9.03
2022-11-23T02:59:24.652Z,10.77
2022-11-23T03:01:55.256Z,10.27
2022-11-23T03:04:27.868Z,10.13
2022-11-23T03:06:57.400Z,11.27
2022-11-23T03:09:28.150Z,11.40
2022-11-23T03:11:58.678Z,10.70
2022-11-23T03:14:29.805Z,9.97
2022-11-23T03:17:01.866Z,9.80
2022-11-23T03:19:36.314Z,10.37
2022-11-23T03:22:05.822Z,11.13
2022-11-23T03:24:35.127Z,10.00
2022-11-23T03:27:07.808Z,11.53
2022-11-23T03:29:37.107Z,9.97
2022-11-23T03:32:12.818Z,10.23
2022-11-23T03:34:45.119Z,9.63
2022-11-23T03:37:14.317Z,10.13
2022-11-23T03:39:47.362Z,10.13
2022-11-23T03:42:36.678Z,11.17
2022-11-23T03:45:06.677Z,10.00
2022-11-23T03:47:36.129Z,10.57
2022-11-23T03:50:05.604Z,10.47
2022-11-23T03:52:34.969Z,11.97
2022-11-23T03:55:04.368Z,9.97
2022-11-23T03:57:33.525Z,10.40
2022-11-23T04:00:08.388Z,10.90
2022-11-23T04:02:42.557Z,10.90
2022-11-23T04:05:31.563Z,10.13
2022-11-23T04:08:19.119Z,10.80
2022-11-23T04:10:49.096Z,10.30
2022-11-23T04:13:23.756Z,10.80
2022-11-23T04:15:54.344Z,10.43
2022-11-23T04:18:23.406Z,10.40
2022-11-23T04:20:52.564Z,11.10
2022-11-23T04:23:21.795Z,11.37
2022-11-23T04:25:52.373Z,9.57
2022-11-23T04:28:22.090Z,11.40
2022-11-23T04:30:53.262Z,9.23
2022-11-23T04:33:22.397Z,9.97
2022-11-23T04:35:52.422Z,10.57
2022-11-23T04:38:22.001Z,10.23
2022-11-23T04:40:51.105Z,11.07
2022-11-23T04:43:20.166Z,10.40
2022-11-23T04:45:50.468Z,9.97
2022-11-23T04:48:27.497Z,11.40
2022-11-23T04:50:58.401Z,10.07
2022-11-23T04:53:34.200Z,10.17
2022-11-23T04:56:04.389Z,9.50
2022-11-23T04:58:38.456Z,9.63
2022-11-23T05:01:08.762Z,9.90
2022-11-23T05:03:48.169Z,11.37
2022-11-23T05:06:17.787Z,8.83
2022-11-23T05:08:48.461Z,9.90
2022-11-23T05:11:35.210Z,9.57
2022-11-23T05:14:05.158Z,9.83
2022-11-23T05:16:34.639Z,8.80
2022-11-23T05:19:05.357Z,9.77
2022-11-23T05:21:35.532Z,8.43
2022-11-23T05:24:05.324Z,9.80
2022-11-23T05:26:34.667Z,10.27
2022-11-23T05:29:03.745Z,9.13
2022-11-23T05:31:33.719Z,9.77
2022-11-23T05:34:04.608Z,9.70
2022-11-23T05:36:42.520Z,7.90
2022-11-23T05:39:12.462Z,7.97
2022-11-23T05:41:42.011Z,8.77
2022-11-23T05:44:24.714Z,9.00
2022-11-23T05:46:53.791Z,9.97
2022-11-23T05:49:25.143Z,8.53
2022-11-23T05:51:54.260Z,9.03
2022-11-23T05:54:23.608Z,9.40
2022-11-23T05:57:07.360Z,9.60
2022-11-23T05:59:43.148Z,9.20
2022-11-23T06:02:19.160Z,8.97
2022-11-23T06:04:54.203Z,8.27
2022-11-23T06:07:33.610Z,9.60
2022-11-23T06:10:09.845Z,8.30
2022-11-23T06:12:43.284Z,8.30
2022-11-23T06:15:16.110Z,7.47
2022-11-23T06:17:46.486Z,7.53
2022-11-23T06:20:21.701Z,7.53
2022-11-23T06:22:58.964Z,8.77
2022-11-23T06:25:28.608Z,8.13
2022-11-23T06:28:03.179Z,7.73
2022-11-23T06:30:40.447Z,8.53
2022-11-23T06:33:10.292Z,8.00
2022-11-23T06:35:56.906Z,9.00
2022-11-23T06:38:29.812Z,8.07
2022-11-23T06:41:04.861Z,7.30
2022-11-23T06:43:34.138Z,8.80
2022-11-23T06:46:06.805Z,10.10
2022-11-23T06:48:39.600Z,8.17
2022-11-23T06:51:11.301Z,7.83
2022-11-23T06:53:40.708Z,8.93
2022-11-23T06:56:11.496Z,8.30
2022-11-23T06:58:41.178Z,7.97
2022-11-23T07:01:14.467Z,8.40
2022-11-23T07:03:50.147Z,8.47
2022-11-23T07:06:27.683Z,8.67
2022-11-23T07:09:00.285Z,7.27
2022-11-23T07:11:47.931Z,7.13
2022-11-23T07:14:18.411Z,9.13
2022-11-23T07:16:50.065Z,9.37
2022-11-23T07:19:19.922Z,8.40
2022-11-23T07:21:51.782Z,8.07
2022-11-23T07:24:20.842Z,8.33
2022-11-23T07:26:49.921Z,8.00
2022-11-23T07:29:19.003Z,7.47
2022-11-23T07:31:48.120Z,6.50
2022-11-23T07:34:17.399Z,8.23
2022-11-23T07:36:46.504Z,8.20
2022-11-23T07:39:16.909Z,8.17
2022-11-23T07:41:46.744Z,8.53
2022-11-23T07:44:23.122Z,7.47
2022-11-23T07:46:54.981Z,7.90
2022-11-23T07:49:24.016Z,7.70
2022-11-23T07:51:54.218Z,8.33
2022-11-23T07:54:24.710Z,7.73
2022-11-23T07:56:53.733Z,7.97
2022-11-23T07:59:22.801Z,8.57
2022-11-23T08:01:57.085Z,7.33
2022-11-23T08:04:27.662Z,7.50
2022-11-23T08:06:56.727Z,7.13
2022-11-23T08:09:27.137Z,7.93
2022-11-23T08:11:56.188Z,7.10
2022-11-23T08:14:25.445Z,8.50
2022-11-23T08:16:54.532Z,7.67
2022-11-23T08:19:23.820Z,7.10
2022-11-23T08:21:52.887Z,7.43
2022-11-23T08:24:22.344Z,7.07
2022-11-23T08:26:52.816Z,6.83
2022-11-23T08:29:22.216Z,7.17
2022-11-23T08:31:51.959Z,7.40
2022-11-23T08:34:21.023Z,7.07
2022-11-23T08:36:50.049Z,6.93
2022-11-23T08:39:19.339Z,6.30
2022-11-23T08:41:48.772Z,6.87
2022-11-23T08:44:19.244Z,7.17
2022-11-23T08:46:48.436Z,7.17
2022-11-23T08:49:17.565Z,6.63
2022-11-23T08:51:50.047Z,6.80
2022-11-23T08:54:19.578Z,6.63
2022-11-23T08:56:48.599Z,6.50
2022-11-23T08:59:20.211Z,6.23
2022-11-23T09:01:49.338Z,6.57
2022-11-23T09:04:31.641Z,5.50
2022-11-23T09:07:00.695Z,6.87
2022-11-23T09:09:29.721Z,5.23
2022-11-23T09:11:59.117Z,6.27
2022-11-23T09:14:30.082Z,6.87
2022-11-23T09:17:01.371Z,6.13
2022-11-23T09:19:30.558Z,6.37
2022-11-23T09:21:59.576Z,6.03
2022-11-23T09:24:28.658Z,5.60
2022-11-23T09:26:58.368Z,6.60
2022-11-23T09:29:28.757Z,4.87
2022-11-23T09:31:57.781Z,6.10
2022-11-23T09:34:26.935Z,5.03
2022-11-23T09:36:58.829Z,5.23
2022-11-23T09:39:27.935Z,6.17
2022-11-23T09:42:14.729Z,5.27
2022-11-23T09:45:03.202Z,4.87
2022-11-23T09:47:51.632Z,4.77
2022-11-23T09:50:28.690Z,4.93
2022-11-23T09:52:57.844Z,5.40
2022-11-23T09:55:35.236Z,4.83
2022-11-23T09:58:06.869Z,4.50
2022-11-23T10:00:42.108Z,5.50
2022-11-23T10:03:16.000Z,5.73
2022-11-23T10:05:50.940Z,5.40
2022-11-23T10:08:30.739Z,4.83
2022-11-23T10:11:08.523Z,4.13
2022-11-23T10:13:44.743Z,4.63
2022-11-23T10:16:30.555Z,4.77
2022-11-23T10:19:07.612Z,4.23
2022-11-23T10:21:45.988Z,4.47
2022-11-23T10:24:21.648Z,4.47
2022-11-23T10:26:51.661Z,3.83
2022-11-23T10:29:28.300Z,4.40
2022-11-23T10:32:00.784Z,4.20
2022-11-23T10:34:50.037Z,4.20
2022-11-23T10:37:19.854Z,4.40
2022-11-23T10:39:49.001Z,3.80
2022-11-23T10:42:23.727Z,4.50
2022-11-23T10:44:56.279Z,4.00
2022-11-23T10:47:39.069Z,3.43
2022-11-23T10:50:24.622Z,3.57
2022-11-23T10:52:56.188Z,3.57
2022-11-23T10:55:31.326Z,4.00
2022-11-23T10:58:01.123Z,4.03
2022-11-23T11:00:31.693Z,3.37
2022-11-23T11:03:19.607Z,3.77
2022-11-23T11:06:09.057Z,3.30
2022-11-23T11:08:51.406Z,3.33
2022-11-23T11:11:29.424Z,3.10
2022-11-23T11:14:07.394Z,3.20
2022-11-23T11:16:38.175Z,3.00
2022-11-23T11:19:27.244Z,3.20
2022-11-23T11:21:56.851Z,3.57
2022-11-23T11:24:32.309Z,2.37
2022-11-23T11:27:04.553Z,2.93
2022-11-23T11:29:39.240Z,2.53
2022-11-23T11:32:12.596Z,2.70
2022-11-23T11:34:48.830Z,2.57
2022-11-23T11:37:28.632Z,2.60
2022-11-23T11:40:04.282Z,2.63
2022-11-23T11:42:38.024Z,3.50
2022-11-23T11:45:14.921Z,2.90
2022-11-23T11:47:50.135Z,3.00
2022-11-23T11:50:30.016Z,3.13
2022-11-23T11:53:07.197Z,2.97
2022-11-23T11:55:49.392Z,2.97
2022-11-23T11:58:19.177Z,3.13
2022-11-23T12:00:51.691Z,2.90
2022-11-23T12:03:30.605Z,3.13
2022-11-23T12:06:06.874Z,3.70
2022-11-23T12:08:44.695Z,3.17
2022-11-23T12:11:14.395Z,3.73
2022-11-23T12:13:46.845Z,2.90
2022-11-23T12:16:27.625Z,2.87
2022-11-23T12:19:15.379Z,3.67
2022-11-23T12:22:27.476Z,2.90
2022-11-23T12:25:11.482Z,3.33
2022-11-23T12:27:53.205Z,3.53
2022-11-23T12:30:26.158Z,3.40
2022-11-23T12:33:34.234Z,3.10
2022-11-23T12:36:27.116Z,3.93
2022-11-23T12:39:08.024Z,3.43
2022-11-23T12:41:47.309Z,3.40
2022-11-23T12:44:44.786Z,3.07
2022-11-23T12:47:23.761Z,3.07
2022-11-23T12:50:00.529Z,2.87
2022-11-23T12:52:42.098Z,3.20
2022-11-23T12:55:21.237Z,3.27
2022-11-23T12:57:56.201Z,2.43
2022-11-23T13:00:27.048Z,3.10
2022-11-23T13:03:50.553Z,2.67
2022-11-23T13:07:20.752Z,2.83
2022-11-23T13:10:07.374Z,2.97
2022-11-23T13:12:57.416Z,2.90
2022-11-23T13:15:44.755Z,2.60
2022-11-23T13:18:21.713Z,2.30
2022-11-23T13:21:13.286Z,3.43
2022-11-23T13:23:42.527Z,2.50
2022-11-23T13:26:16.342Z,2.77
2022-11-23T13:28:48.605Z,2.90
2022-11-23T13:31:27.640Z,2.97
2022-11-23T13:33:58.594Z,2.43
2022-11-23T13:37:11.838Z,3.13
2022-11-23T13:39:55.873Z,2.80
2022-11-23T13:42:27.669Z,2.57
2022-11-23T13:45:21.982Z,2.63
2022-11-23T13:48:07.311Z,3.07
2022-11-23T13:50:36.965Z,3.00
2022-11-23T13:53:19.905Z,2.30
2022-11-23T13:55:49.283Z,2.77
2022-11-23T13:58:40.971Z,2.93
2022-11-23T14:01:12.086Z,2.57
2022-11-23T14:04:19.827Z,2.50
2022-11-23T14:06:52.399Z,2.43
2022-11-23T14:09:26.498Z,2.27
2022-11-23T14:12:06.678Z,2.47
2022-11-23T14:14:50.800Z,2.17
2022-11-23T14:17:48.075Z,2.20
2022-11-23T14:20:39.945Z,2.20
2022-11-23T14:23:35.439Z,2.30
2022-11-23T14:26:22.737Z,2.47
2022-11-23T14:29:07.566Z,2.77
2022-11-23T14:31:46.608Z,2.70
2022-11-23T14:34:31.489Z,2.53
2022-11-23T14:37:09.214Z,2.40
2022-11-23T14:39:57.941Z,2.30
2022-11-23T14:42:29.116Z,2.73
2022-11-23T14:45:02.514Z,2.50
2022-11-23T14:47:33.008Z,2.40
2022-11-23T14:50:03.562Z,3.07
2022-11-23T14:52:36.259Z,2.97
2022-11-23T14:55:07.625Z,2.90
2022-11-23T14:57:43.043Z,3.17
2022-11-23T15:00:28.351Z,2.47
2022-11-23T15:03:00.431Z,2.83
2022-11-23T15:05:33.540Z,2.90
2022-11-23T15:08:06.948Z,3.10
2022-11-23T15:10:44.278Z,3.87
2022-11-23T15:13:22.689Z,2.87
2022-11-23T15:15:54.875Z,3.57
2022-11-23T15:18:31.895Z,3.43
2022-11-23T15:21:05.164Z,3.53
2022-11-23T15:23:39.778Z,3.50
2022-11-23T15:26:34.628Z,3.77
2022-11-23T15:29:05.195Z,3.30
2022-11-23T15:31:36.530Z,3.13
2022-11-23T15:34:13.990Z,2.90
2022-11-23T15:36:45.453Z,3.10
2022-11-23T15:39:19.341Z,3.07
2022-11-23T15:41:48.764Z,3.10
2022-11-23T15:44:23.381Z,3.77
2022-11-23T15:46:56.477Z,3.63
2022-11-23T15:49:25.804Z,3.30
2022-11-23T15:52:01.432Z,3.90
2022-11-23T15:54:38.428Z,3.60
2022-11-23T15:57:11.245Z,3.60
2022-11-23T15:59:44.121Z,3.83
2022-11-23T16:02:17.642Z,3.97
2022-11-23T16:04:47.010Z,4.17
2022-11-23T16:07:22.673Z,3.70
2022-11-23T16:10:04.345Z,4.00
2022-11-23T16:12:35.498Z,3.67
2022-11-23T16:15:33.653Z,3.90
2022-11-23T16:18:03.308Z,4.10
2022-11-23T16:20:33.372Z,3.63
2022-11-23T16:23:05.223Z,4.80
2022-11-23T16:25:35.502Z,4.43
2022-11-23T16:28:06.754Z,4.17
2022-11-23T16:30:38.486Z,4.73
2022-11-23T16:33:14.148Z,4.53
2022-11-23T16:35:43.512Z,4.17
2022-11-23T16:38:13.989Z,3.87
2022-11-23T16:40:43.870Z,4.57
2022-11-23T16:43:14.201Z,4.10
2022-11-23T16:45:46.592Z,4.57
2022-11-23T16:48:42.013Z,4.43
2022-11-23T16:51:14.320Z,5.00
2022-11-23T16:54:12.486Z,4.10
2022-11-23T16:56:36.331Z,4.40
2022-11-23T16:59:05.439Z,4.60
2022-11-23T17:01:40.106Z,4.67
2022-11-23T17:04:10.624Z,3.67
2022-11-23T17:06:41.045Z,5.03
2022-11-23T17:09:11.638Z,3.97
2022-11-23T17:11:43.268Z,4.67
2022-11-23T17:14:18.915Z,4.30
2022-11-23T17:16:48.622Z,3.97
2022-11-23T17:19:20.293Z,4.53
2022-11-23T17:21:49.358Z,4.93
2022-11-23T17:24:19.837Z,4.33
2022-11-23T17:26:52.643Z,4.70
2022-11-23T17:29:22.345Z,4.97
2022-11-23T17:31:52.415Z,4.63
2022-11-23T17:34:21.464Z,4.87
2022-11-23T17:36:53.034Z,4.90
2022-11-23T17:39:26.163Z,4.83
2022-11-23T17:42:01.587Z,4.70
2022-11-23T17:44:33.722Z,4.90
2022-11-23T17:47:03.256Z,5.03
2022-11-23T17:49:33.412Z,5.27
2022-11-23T17:52:02.992Z,4.80
2022-11-23T17:54:33.409Z,5.30
2022-11-23T17:57:02.544Z,5.00
2022-11-23T17:59:32.438Z,4.60
2022-11-23T18:02:01.775Z,4.57
2022-11-23T18:04:31.084Z,4.97
2022-11-23T18:07:00.244Z,5.53
2022-11-23T18:09:29.335Z,4.33
2022-11-23T18:11:59.904Z,5.17
2022-11-23T18:14:29.032Z,4.50
2022-11-23T18:16:58.177Z,5.80
2022-11-23T18:19:27.673Z,5.63
2022-11-23T18:21:57.239Z,4.77
2022-11-23T18:24:26.402Z,4.37
2022-11-23T18:26:55.457Z,4.90
2022-11-23T18:29:26.001Z,5.60
2022-11-23T18:31:55.375Z,4.27
2022-11-23T18:34:24.666Z,5.80
2022-11-23T18:36:53.937Z,5.17
2022-11-23T18:39:23.510Z,5.07
2022-11-23T18:41:52.585Z,5.27
2022-11-23T18:44:21.910Z,4.87
2022-11-23T18:46:52.554Z,4.73
2022-11-23T18:49:22.544Z,5.40
2022-11-23T18:51:51.857Z,5.07
2022-11-23T18:54:21.338Z,4.13
2022-11-23T18:56:50.428Z,4.57
2022-11-23T18:59:42.475Z,4.93
2022-11-23T19:02:12.427Z,5.53
2022-11-23T19:04:41.497Z,4.60
2022-11-23T19:07:10.790Z,4.33
2022-11-23T19:09:39.888Z,5.30
2022-11-23T19:12:09.754Z,5.17
2022-11-23T19:14:38.877Z,5.33
2022-11-23T19:17:08.013Z,4.63
2022-11-23T19:19:38.628Z,5.47
2022-11-23T19:22:07.692Z,5.70
2022-11-23T19:24:36.755Z,5.47
2022-11-23T19:27:05.831Z,5.20
2022-11-23T19:29:35.181Z,5.63
2022-11-23T19:32:04.497Z,5.07
2022-11-23T19:34:33.776Z,5.27
2022-11-23T19:37:04.234Z,6.07
2022-11-23T19:39:33.689Z,5.47
2022-11-23T19:42:03.602Z,4.93
2022-11-23T19:44:32.699Z,4.90
2022-11-23T19:47:02.911Z,5.23
2022-11-23T19:49:33.747Z,5.50
2022-11-23T19:52:05.216Z,4.50
2022-11-23T19:54:34.589Z,5.20
2022-11-23T19:57:03.678Z,5.27
2022-11-23T19:59:33.465Z,5.83
2022-11-23T20:02:02.776Z,4.90
2022-11-23T20:04:32.286Z,5.83
2022-11-23T20:07:02.804Z,5.37
2022-11-23T20:09:32.044Z,5.07
2022-11-23T20:12:01.402Z,5.97
2022-11-23T20:14:30.426Z,5.80
2022-11-23T20:16:59.497Z,5.20
2022-11-23T20:19:28.555Z,5.47
2022-11-23T20:21:58.402Z,5.47
2022-11-23T20:24:28.905Z,5.83
2022-11-23T20:26:57.997Z,5.87
2022-11-23T20:29:27.889Z,5.27
2022-11-23T20:31:57.031Z,6.00
2022-11-23T20:34:26.474Z,5.43
2022-11-23T20:36:55.793Z,5.67
2022-11-23T20:39:24.933Z,6.10
2022-11-23T20:41:55.436Z,5.40
2022-11-23T20:44:29.560Z,5.07
2022-11-23T20:47:03.497Z,4.90
2022-11-23T20:49:32.982Z,5.70
2022-11-23T20:52:02.790Z,5.83
2022-11-23T20:54:32.501Z,5.43
2022-11-23T20:57:03.709Z,6.50
2022-11-23T20:59:32.866Z,5.47
2022-11-23T21:02:02.156Z,6.20
2022-11-23T21:04:31.496Z,6.00
2022-11-23T21:07:00.742Z,5.90
2022-11-23T21:09:29.871Z,5.63
2022-11-23T21:12:16.320Z,5.23
2022-11-23T21:14:46.893Z,5.73
2022-11-23T21:17:15.917Z,5.33
2022-11-23T21:19:45.001Z,6.47
2022-11-23T21:22:16.471Z,6.10
2022-11-23T21:24:45.532Z,5.67
2022-11-23T21:27:16.165Z,5.93
2022-11-23T21:29:46.645Z,5.70
2022-11-23T21:32:15.725Z,5.10
2022-11-23T21:34:44.962Z,5.30
2022-11-23T21:37:14.349Z,5.70
2022-11-23T21:39:47.997Z,5.20
2022-11-23T21:42:20.320Z,5.70
2022-11-23T21:44:50.811Z,4.97
2022-11-23T21:47:19.908Z,4.40
2022-11-23T21:49:48.958Z,4.17
2022-11-23T21:52:18.060Z,4.73
2022-11-23T21:54:49.124Z,4.47
2022-11-23T21:57:18.393Z,4.93
2022-11-23T21:59:47.551Z,5.47
2022-11-23T22:02:18.279Z,4.73
2022-11-23T22:04:47.607Z,4.57
2022-11-23T22:07:16.951Z,4.80
2022-11-23T22:09:46.214Z,5.00
2022-11-23T22:12:15.477Z,4.37
2022-11-23T22:14:44.707Z,4.97
2022-11-23T22:17:13.901Z,4.90
2022-11-23T22:19:44.535Z,4.27
2022-11-23T22:22:13.803Z,4.70
2022-11-23T22:24:43.068Z,4.17
2022-11-23T22:27:12.320Z,4.90
2022-11-23T22:29:41.554Z,4.93
2022-11-23T22:32:10.779Z,4.47
2022-11-23T22:34:40.388Z,4.33
2022-11-23T22:37:11.232Z,3.83
2022-11-23T22:39:40.523Z,3.93
2022-11-23T22:42:10.132Z,4.10
2022-11-23T22:44:39.476Z,3.57
2022-11-23T22:47:08.727Z,3.93
2022-11-23T22:49:38.179Z,4.40
2022-11-23T22:52:07.491Z,3.73
2022-11-23T22:54:38.422Z,4.27
2022-11-23T22:57:07.655Z,4.23
2022-11-23T22:59:36.916Z,4.73
2022-11-23T23:02:07.358Z,3.10
2022-11-23T23:04:36.647Z,4.37
2022-11-23T23:07:05.886Z,3.70
2022-11-23T23:09:35.152Z,3.90
2022-11-23T23:12:06.278Z,4.40
2022-11-23T23:14:36.863Z,4.63
2022-11-23T23:17:06.159Z,4.60
2022-11-23T23:19:35.540Z,3.83
2022-11-23T23:22:04.793Z,4.40
2022-11-23T23:24:34.372Z,4.07
2022-11-23T23:27:05.359Z,4.27
2022-11-23T23:29:34.627Z,3.97
2022-11-23T23:32:03.916Z,3.57
2022-11-23T23:34:33.372Z,3.90
2022-11-23T23:37:02.698Z,3.33
2022-11-23T23:39:31.915Z,3.57
2022-11-23T23:42:01.205Z,3.60
2022-11-23T23:44:32.059Z,3.90
2022-11-23T23:47:01.463Z,4.10
2022-11-23T23:49:31.557Z,4.20
2022-11-23T23:52:00.779Z,3.77
2022-11-23T23:54:30.006Z,3.80
2022-11-23T23:56:59.226Z,3.13
2022-11-23T23:59:28.511Z,3.70
